sensor_id;sensor_type;location;lat;lon;timestamp;pressure;altitude;pressure_sealevel;temperature;humidity
34297;BME280;20564;42.902;25.336;2023-03-03T00:01:38;97420.59;;;4.89;100.00
34297;BME280;20564;42.902;25.336;2023-03-03T00:04:32;97423.03;;;4.92;100.00
34297;BME280;20564;42.902;25.336;2023-03-03T00:07:13;97414.38;;;4.92;100.00
34297;BME280;20564;42.902;25.336;2023-03-03T00:09:57;97428.16;;;4.94;100.00
34297;BME280;20564;42.902;25.336;2023-03-03T00:12:25;97417.72;;;4.94;100.00
34297;BME280;20564;42.902;25.336;2023-03-03T00:14:56;97412.09;;;5.00;100.00
34297;BME280;20564;42.902;25.336;2023-03-03T00:17:25;97406.78;;;5.01;100.00
34297;BME280;20564;42.902;25.336;2023-03-03T00:19:53;97411.25;;;4.99;100.00
34297;BME280;20564;42.902;25.336;2023-03-03T00:22:30;97404.38;;;4.98;100.00
34297;BME280;20564;42.902;25.336;2023-03-03T00:28:15;97390.59;;;4.96;100.00
34297;BME280;20564;42.902;25.336;2023-03-03T00:30:51;97388.28;;;4.92;100.00
34297;BME280;20564;42.902;25.336;2023-03-03T00:33:32;97383.06;;;4.92;100.00
34297;BME280;20564;42.902;25.336;2023-03-03T00:36:28;97381.94;;;4.96;100.00
34297;BME280;20564;42.902;25.336;2023-03-03T00:39:24;97376.06;;;4.92;100.00
34297;BME280;20564;42.902;25.336;2023-03-03T00:41:58;97369.19;;;4.91;100.00
34297;BME280;20564;42.902;25.336;2023-03-03T00:44:51;97370.97;;;4.91;100.00
34297;BME280;20564;42.902;25.336;2023-03-03T00:49:49;97366.38;;;4.94;100.00
34297;BME280;20564;42.902;25.336;2023-03-03T00:52:26;97358.75;;;4.91;100.00
34297;BME280;20564;42.902;25.336;2023-03-03T00:55:05;97357.63;;;4.95;100.00
34297;BME280;20564;42.902;25.336;2023-03-03T00:57:51;97353.44;;;4.93;100.00
34297;BME280;20564;42.902;25.336;2023-03-03T01:00:21;97349.16;;;4.92;100.00
34297;BME280;20564;42.902;25.336;2023-03-03T01:02:48;97350.09;;;4.91;100.00
34297;BME280;20564;42.902;25.336;2023-03-03T01:05:17;97350.94;;;4.91;100.00
34297;BME280;20564;42.902;25.336;2023-03-03T01:07:56;97344.97;;;4.89;100.00
34297;BME280;20564;42.902;25.336;2023-03-03T01:10:52;97334.84;;;4.84;100.00
34297;BME280;20564;42.902;25.336;2023-03-03T01:13:22;97333.81;;;4.87;100.00
34297;BME280;20564;42.902;25.336;2023-03-03T01:15:50;97332.88;;;4.88;100.00
34297;BME280;20564;42.902;25.336;2023-03-03T01:18:17;97323.09;;;4.92;100.00
34297;BME280;20564;42.902;25.336;2023-03-03T01:20:47;97333.63;;;4.90;100.00
34297;BME280;20564;42.902;25.336;2023-03-03T01:23:15;97335.28;;;4.91;100.00
34297;BME280;20564;42.902;25.336;2023-03-03T01:25:42;97331.94;;;4.89;100.00
34297;BME280;20564;42.902;25.336;2023-03-03T01:28:10;97337.06;;;4.91;100.00
34297;BME280;20564;42.902;25.336;2023-03-03T01:31:03;97333.63;;;4.90;100.00
34297;BME280;20564;42.902;25.336;2023-03-03T01:33:33;97331.94;;;4.89;100.00
34297;BME280;20564;42.902;25.336;2023-03-03T01:36:28;97332.78;;;4.90;100.00
34297;BME280;20564;42.902;25.336;2023-03-03T01:38:56;97324.41;;;4.84;100.00
34297;BME280;20564;42.902;25.336;2023-03-03T01:41:28;97331.50;;;4.82;100.00
34297;BME280;20564;42.902;25.336;2023-03-03T01:44:22;97325.38;;;4.83;100.00
34297;BME280;20564;42.902;25.336;2023-03-03T01:47:21;97332.88;;;4.88;100.00
34297;BME280;20564;42.902;25.336;2023-03-03T01:50:04;97323.91;;;4.79;100.00
34297;BME280;20564;42.902;25.336;2023-03-03T01:52:58;97319.53;;;4.80;100.00
34297;BME280;20564;42.902;25.336;2023-03-03T01:55:36;97322.31;;;4.77;100.00
34297;BME280;20564;42.902;25.336;2023-03-03T01:58:16;97313.75;;;4.75;100.00
34297;BME280;20564;42.902;25.336;2023-03-03T02:00:57;97312.09;;;4.74;100.00
34297;BME280;20564;42.902;25.336;2023-03-03T02:03:26;97310.44;;;4.73;100.00
34297;BME280;20564;42.902;25.336;2023-03-03T02:05:58;97320.84;;;4.73;100.00
34297;BME280;20564;42.902;25.336;2023-03-03T02:08:33;97312.28;;;4.71;100.00
34297;BME280;20564;42.902;25.336;2023-03-03T02:11:12;97322.63;;;4.72;100.00
34297;BME280;20564;42.902;25.336;2023-03-03T02:13:40;97315.84;;;4.70;100.00
34297;BME280;20564;42.902;25.336;2023-03-03T02:16:35;97323.34;;;4.74;100.00
34297;BME280;20564;42.902;25.336;2023-03-03T02:22:46;97316.97;;;4.66;100.00
34297;BME280;20564;42.902;25.336;2023-03-03T02:25:30;97318.84;;;4.64;100.00
34297;BME280;20564;42.902;25.336;2023-03-03T02:28:16;97319.59;;;4.66;100.00
34297;BME280;20564;42.902;25.336;2023-03-03T02:30:43;97319.97;;;4.59;100.00
34297;BME280;20564;42.902;25.336;2023-03-03T02:33:35;97326.66;;;4.64;100.00
34297;BME280;20564;42.902;25.336;2023-03-03T02:36:08;97317.81;;;4.66;100.00
34297;BME280;20564;42.902;25.336;2023-03-03T02:46:58;97321.06;;;4.70;100.00
34297;BME280;20564;42.902;25.336;2023-03-03T02:49:27;97322.28;;;4.64;100.00
34297;BME280;20564;42.902;25.336;2023-03-03T02:51:59;97326.84;;;4.60;100.00
34297;BME280;20564;42.902;25.336;2023-03-03T02:54:28;97320.78;;;4.47;100.00
34297;BME280;20564;42.902;25.336;2023-03-03T02:57:03;97324.34;;;4.46;100.00
34297;BME280;20564;42.902;25.336;2023-03-03T02:59:39;97319.97;;;4.47;100.00
34297;BME280;20564;42.902;25.336;2023-03-03T03:02:16;97320.59;;;4.50;100.00
34297;BME280;20564;42.902;25.336;2023-03-03T03:05:02;97320.59;;;4.50;100.00
34297;BME280;20564;42.902;25.336;2023-03-03T03:07:32;97324.13;;;4.49;100.00
34297;BME280;20564;42.902;25.336;2023-03-03T03:10:00;97324.13;;;4.49;100.00
34297;BME280;20564;42.902;25.336;2023-03-03T03:12:39;97316.28;;;4.49;100.00
34297;BME280;20564;42.902;25.336;2023-03-03T03:15:23;97326.72;;;4.49;100.00
34297;BME280;20564;42.902;25.336;2023-03-03T03:18:00;97319.75;;;4.50;100.00
34297;BME280;20564;42.902;25.336;2023-03-03T03:20:27;97318.72;;;4.52;100.00
34297;BME280;20564;42.902;25.336;2023-03-03T03:23:05;97323.53;;;4.58;100.00
34297;BME280;20564;42.902;25.336;2023-03-03T03:25:35;97313.81;;;4.60;100.00
34297;BME280;20564;42.902;25.336;2023-03-03T03:28:37;97319.78;;;4.63;100.00
34297;BME280;20564;42.902;25.336;2023-03-03T03:31:09;97319.91;;;4.61;100.00
34297;BME280;20564;42.902;25.336;2023-03-03T03:33:42;97311.97;;;4.63;100.00
34297;BME280;20564;42.902;25.336;2023-03-03T03:36:48;97300.59;;;4.64;100.00
34297;BME280;20564;42.902;25.336;2023-03-03T03:39:54;97306.25;;;4.70;100.00
34297;BME280;20564;42.902;25.336;2023-03-03T03:42:27;97306.03;;;4.73;100.00
34297;BME280;20564;42.902;25.336;2023-03-03T03:44:54;97302.59;;;4.73;100.00
34297;BME280;20564;42.902;25.336;2023-03-03T03:47:25;97303.75;;;4.69;100.00
34297;BME280;20564;42.902;25.336;2023-03-03T03:49:55;97305.22;;;4.73;100.00
34297;BME280;20564;42.902;25.336;2023-03-03T03:52:23;97297.41;;;4.73;100.00
34297;BME280;20564;42.902;25.336;2023-03-03T03:54:50;97290.72;;;4.69;100.00
34297;BME280;20564;42.902;25.336;2023-03-03T03:57:17;97293.31;;;4.69;100.00
34297;BME280;20564;42.902;25.336;2023-03-03T03:59:44;97286.22;;;4.71;100.00
34297;BME280;20564;42.902;25.336;2023-03-03T04:02:17;97287.16;;;4.70;100.00
34297;BME280;20564;42.902;25.336;2023-03-03T04:04:44;97291.00;;;4.64;100.00
34297;BME280;20564;42.902;25.336;2023-03-03T04:07:12;97290.34;;;4.60;100.00
34297;BME280;20564;42.902;25.336;2023-03-03T04:09:39;97286.63;;;4.65;100.00
34297;BME280;20564;42.902;25.336;2023-03-03T04:12:12;97287.88;;;4.59;100.00
34297;BME280;20564;42.902;25.336;2023-03-03T04:14:43;97278.06;;;4.63;100.00
34297;BME280;20564;42.902;25.336;2023-03-03T04:17:21;97286.63;;;4.65;100.00
34297;BME280;20564;42.902;25.336;2023-03-03T04:19:52;97281.63;;;4.62;100.00
34297;BME280;20564;42.902;25.336;2023-03-03T04:22:22;97278.28;;;4.59;100.00
34297;BME280;20564;42.902;25.336;2023-03-03T04:24:52;97278.06;;;4.63;100.00
34297;BME280;20564;42.902;25.336;2023-03-03T04:27:20;97276.41;;;4.62;100.00
34297;BME280;20564;42.902;25.336;2023-03-03T04:29:47;97279.94;;;4.60;100.00
34297;BME280;20564;42.902;25.336;2023-03-03T04:32:19;97277.88;;;4.66;100.00
34297;BME280;20564;42.902;25.336;2023-03-03T04:34:52;97290.16;;;4.64;100.00
34297;BME280;20564;42.902;25.336;2023-03-03T04:37:33;97288.50;;;4.63;100.00
34297;BME280;20564;42.902;25.336;2023-03-03T04:40:01;97280.88;;;4.59;100.00
34297;BME280;20564;42.902;25.336;2023-03-03T04:42:28;97292.25;;;4.58;100.00
34297;BME280;20564;42.902;25.336;2023-03-03T04:44:55;97297.25;;;4.62;100.00
34297;BME280;20564;42.902;25.336;2023-03-03T04:47:32;97292.06;;;4.62;100.00
34297;BME280;20564;42.902;25.336;2023-03-03T04:50:10;97292.06;;;4.62;100.00
34297;BME280;20564;42.902;25.336;2023-03-03T04:53:17;97297.47;;;4.58;100.00
34297;BME280;20564;42.902;25.336;2023-03-03T04:56:10;97294.94;;;4.57;100.00
34297;BME280;20564;42.902;25.336;2023-03-03T05:05:24;97307.13;;;4.56;100.00
34297;BME280;20564;42.902;25.336;2023-03-03T05:07:53;97306.41;;;4.54;100.00
34297;BME280;20564;42.902;25.336;2023-03-03T05:10:21;97296.00;;;4.54;100.00
34297;BME280;20564;42.902;25.336;2023-03-03T05:13:00;97299.75;;;4.50;100.00
34297;BME280;20564;42.902;25.336;2023-03-03T05:15:28;97296.00;;;4.54;100.00
34297;BME280;20564;42.902;25.336;2023-03-03T05:17:58;97296.19;;;4.51;100.00
34297;BME280;20564;42.902;25.336;2023-03-03T05:20:30;97297.47;;;4.58;100.00
34297;BME280;20564;42.902;25.336;2023-03-03T05:25:52;97295.56;;;4.60;100.00
34297;BME280;20564;42.902;25.336;2023-03-03T05:28:21;97295.56;;;4.60;100.00
34297;BME280;20564;42.902;25.336;2023-03-03T05:30:55;97299.94;;;4.60;100.00
34297;BME280;20564;42.902;25.336;2023-03-03T05:33:27;97305.81;;;4.64;100.00
34297;BME280;20564;42.902;25.336;2023-03-03T05:36:00;97308.31;;;4.65;100.00
34297;BME280;20564;42.902;25.336;2023-03-03T05:38:39;97312.59;;;4.66;100.00
34297;BME280;20564;42.902;25.336;2023-03-03T05:41:44;97304.03;;;4.64;100.00
34297;BME280;20564;42.902;25.336;2023-03-03T05:44:21;97303.19;;;4.64;100.00
34297;BME280;20564;42.902;25.336;2023-03-03T05:46:54;97307.06;;;4.71;100.00
34297;BME280;20564;42.902;25.336;2023-03-03T05:49:40;97315.66;;;4.73;100.00
34297;BME280;20564;42.902;25.336;2023-03-03T05:52:08;97313.75;;;4.75;100.00
34297;BME280;20564;42.902;25.336;2023-03-03T05:54:35;97314.31;;;4.80;100.00
34297;BME280;20564;42.902;25.336;2023-03-03T05:57:16;97313.56;;;4.78;100.00
34297;BME280;20564;42.902;25.336;2023-03-03T05:59:59;97311.91;;;4.77;100.00
34297;BME280;20564;42.902;25.336;2023-03-03T06:02:30;97303.56;;;4.72;100.00
34297;BME280;20564;42.902;25.336;2023-03-03T06:05:04;97300.19;;;4.70;100.00
34297;BME280;20564;42.902;25.336;2023-03-03T06:07:54;97300.84;;;4.73;100.00
34297;BME280;20564;42.902;25.336;2023-03-03T06:10:39;97297.91;;;4.78;100.00
34297;BME280;20564;42.902;25.336;2023-03-03T06:13:15;97299.19;;;4.85;100.00
34297;BME280;20564;42.902;25.336;2023-03-03T06:15:45;97299.59;;;4.92;100.00
34297;BME280;20564;42.902;25.336;2023-03-03T06:18:14;97305.78;;;4.91;100.00
34297;BME280;20564;42.902;25.336;2023-03-03T06:20:44;97300.63;;;4.89;100.00
34297;BME280;20564;42.902;25.336;2023-03-03T06:23:15;97307.75;;;4.87;100.00
34297;BME280;20564;42.902;25.336;2023-03-03T06:25:42;97305.66;;;4.92;100.00
34297;BME280;20564;42.902;25.336;2023-03-03T06:28:10;97310.88;;;4.92;100.00
34297;BME280;20564;42.902;25.336;2023-03-03T06:30:40;97298.47;;;4.96;100.00
34297;BME280;20564;42.902;25.336;2023-03-03T06:33:07;97311.00;;;5.03;100.00
34297;BME280;20564;42.902;25.336;2023-03-03T06:35:37;97301.72;;;5.12;100.00
34297;BME280;20564;42.902;25.336;2023-03-03T06:38:39;97301.19;;;5.07;100.00
34297;BME280;20564;42.902;25.336;2023-03-03T06:41:10;97307.34;;;5.06;100.00
34297;BME280;20564;42.902;25.336;2023-03-03T06:43:37;97306.53;;;5.05;100.00
34297;BME280;20564;42.902;25.336;2023-03-03T06:46:08;97311.63;;;5.07;100.00
34297;BME280;20564;42.902;25.336;2023-03-03T06:48:35;97311.31;;;4.99;100.00
34297;BME280;20564;42.902;25.336;2023-03-03T06:51:16;97317.34;;;4.99;100.00
34297;BME280;20564;42.902;25.336;2023-03-03T06:53:54;97320.28;;;4.95;100.00
34297;BME280;20564;42.902;25.336;2023-03-03T06:56:24;97324.13;;;4.89;100.00
34297;BME280;20564;42.902;25.336;2023-03-03T06:58:59;97311.63;;;4.94;100.00
34297;BME280;20564;42.902;25.336;2023-03-03T07:01:35;97308.38;;;5.03;100.00
34297;BME280;20564;42.902;25.336;2023-03-03T07:04:14;97311.72;;;5.05;100.00
34297;BME280;20564;42.902;25.336;2023-03-03T07:06:57;97313.06;;;5.11;100.00
34297;BME280;20564;42.902;25.336;2023-03-03T07:09:28;97307.16;;;5.09;100.00
34297;BME280;20564;42.902;25.336;2023-03-03T07:12:09;97314.88;;;5.23;100.00
34297;BME280;20564;42.902;25.336;2023-03-03T07:14:48;97313.63;;;5.29;100.00
34297;BME280;20564;42.902;25.336;2023-03-03T07:17:24;97311.63;;;5.32;100.00
34297;BME280;20564;42.902;25.336;2023-03-03T07:19:55;97311.75;;;5.31;100.00
34297;BME280;20564;42.902;25.336;2023-03-03T07:22:24;97310.06;;;5.30;100.00
34297;BME280;20564;42.902;25.336;2023-03-03T07:25:05;97311.31;;;5.37;100.00
34297;BME280;20564;42.902;25.336;2023-03-03T07:27:44;97305.06;;;5.40;100.00
34297;BME280;20564;42.902;25.336;2023-03-03T07:30:27;97303.06;;;5.43;100.00
34297;BME280;20564;42.902;25.336;2023-03-03T07:32:57;97298.47;;;5.47;100.00
34297;BME280;20564;42.902;25.336;2023-03-03T07:35:37;97295.31;;;5.54;100.00
34297;BME280;20564;42.902;25.336;2023-03-03T07:40:55;97289.28;;;5.67;100.00
34297;BME280;20564;42.902;25.336;2023-03-03T07:48:35;97284.53;;;5.72;100.00
34297;BME280;20564;42.902;25.336;2023-03-03T07:51:11;97284.53;;;5.72;100.00
34297;BME280;20564;42.902;25.336;2023-03-03T07:53:42;97283.19;;;5.66;100.00
34297;BME280;20564;42.902;25.336;2023-03-03T07:56:27;97289.28;;;5.67;100.00
34297;BME280;20564;42.902;25.336;2023-03-03T08:01:46;97294.38;;;5.68;100.00
34297;BME280;20564;42.902;25.336;2023-03-03T08:07:16;97286.66;;;5.67;100.00
34297;BME280;20564;42.902;25.336;2023-03-03T08:12:18;97278.38;;;5.73;100.00
34297;BME280;20564;42.902;25.336;2023-03-03T08:14:51;97286.22;;;5.73;100.00
34297;BME280;20564;42.902;25.336;2023-03-03T08:17:46;97258.56;;;5.57;100.00
34297;BME280;20564;42.902;25.336;2023-03-03T08:20:57;97265.03;;;5.65;100.00
34297;BME280;20564;42.902;25.336;2023-03-03T08:23:42;97274.53;;;5.66;100.00
34297;BME280;20564;42.902;25.336;2023-03-03T08:26:11;97251.97;;;5.52;100.00
34297;BME280;20564;42.902;25.336;2023-03-03T08:28:58;97265.97;;;5.64;100.00
34297;BME280;20564;42.902;25.336;2023-03-03T08:31:39;97252.59;;;5.68;100.00
34297;BME280;20564;42.902;25.336;2023-03-03T08:34:16;97260.31;;;5.70;100.00
34297;BME280;20564;42.902;25.336;2023-03-03T08:36:47;97264.28;;;5.75;100.00
34297;BME280;20564;42.902;25.336;2023-03-03T08:39:19;97252.16;;;5.74;100.00
34297;BME280;20564;42.902;25.336;2023-03-03T08:41:49;97261.25;;;5.82;100.00
34297;BME280;20564;42.902;25.336;2023-03-03T08:44:17;97243.56;;;5.85;100.00
34297;BME280;20564;42.902;25.336;2023-03-03T08:46:49;97250.88;;;5.80;100.00
34297;BME280;20564;42.902;25.336;2023-03-03T08:49:16;97249.66;;;5.73;100.00
34297;BME280;20564;42.902;25.336;2023-03-03T08:51:44;97242.75;;;5.72;100.00
34297;BME280;20564;42.902;25.336;2023-03-03T08:54:12;97250.69;;;5.70;100.00
34297;BME280;20564;42.902;25.336;2023-03-03T08:56:39;97250.38;;;5.75;100.00
34297;BME280;20564;42.902;25.336;2023-03-03T08:59:06;97250.38;;;5.75;100.00
34297;BME280;20564;42.902;25.336;2023-03-03T09:01:33;97235.63;;;5.74;100.00
34297;BME280;20564;42.902;25.336;2023-03-03T09:04:00;97242.03;;;5.70;100.00
34297;BME280;20564;42.902;25.336;2023-03-03T09:06:27;97239.88;;;5.64;100.00
34297;BME280;20564;42.902;25.336;2023-03-03T09:08:54;97236.50;;;5.62;100.00
34297;BME280;20564;42.902;25.336;2023-03-03T09:11:26;97242.56;;;5.62;100.00
34297;BME280;20564;42.902;25.336;2023-03-03T09:14:05;97239.13;;;5.62;100.00
34297;BME280;20564;42.902;25.336;2023-03-03T09:16:37;97228.97;;;5.70;100.00
34297;BME280;20564;42.902;25.336;2023-03-03T09:19:34;97228.13;;;5.82;100.00
34297;BME280;20564;42.902;25.336;2023-03-03T09:22:19;97231.00;;;5.90;100.00
34297;BME280;20564;42.902;25.336;2023-03-03T09:28:07;97228.94;;;6.19;100.00
34297;BME280;20564;42.902;25.336;2023-03-03T09:30:59;97228.63;;;6.35;100.00
34297;BME280;20564;42.902;25.336;2023-03-03T09:33:30;97218.44;;;6.43;100.00
34297;BME280;20564;42.902;25.336;2023-03-03T09:36:38;97225.84;;;6.61;100.00
34297;BME280;20564;42.902;25.336;2023-03-03T09:39:21;97222.34;;;6.73;100.00
34297;BME280;20564;42.902;25.336;2023-03-03T09:48:07;97222.69;;;6.80;100.00
34297;BME280;20564;42.902;25.336;2023-03-03T10:08:36;97200.03;;;7.03;100.00
34297;BME280;20564;42.902;25.336;2023-03-03T10:11:27;97198.72;;;7.08;100.00
34297;BME280;20564;42.902;25.336;2023-03-03T10:17:18;97192.28;;;7.01;100.00
34297;BME280;20564;42.902;25.336;2023-03-03T10:20:06;97192.88;;;7.05;100.00
34297;BME280;20564;42.902;25.336;2023-03-03T10:26:03;97186.22;;;6.89;100.00
34297;BME280;20564;42.902;25.336;2023-03-03T10:34:06;97188.22;;;6.86;100.00
34297;BME280;20564;42.902;25.336;2023-03-03T10:37:27;97182.16;;;6.74;100.00
34297;BME280;20564;42.902;25.336;2023-03-03T10:43:00;97178.72;;;6.38;100.00
34297;BME280;20564;42.902;25.336;2023-03-03T10:45:48;97170.38;;;6.22;100.00
34297;BME280;20564;42.902;25.336;2023-03-03T10:58:34;97157.19;;;6.23;100.00
34297;BME280;20564;42.902;25.336;2023-03-03T11:01:24;97155.56;;;6.34;100.00
34297;BME280;20564;42.902;25.336;2023-03-03T11:04:49;97153.03;;;6.32;100.00
34297;BME280;20564;42.902;25.336;2023-03-03T11:15:50;97137.13;;;6.35;100.00
34297;BME280;20564;42.902;25.336;2023-03-03T11:22:02;97135.94;;;6.39;100.00
34297;BME280;20564;42.902;25.336;2023-03-03T11:33:52;97129.25;;;6.24;100.00
34297;BME280;20564;42.902;25.336;2023-03-03T11:36:52;97137.03;;;6.37;100.00
34297;BME280;20564;42.902;25.336;2023-03-03T11:39:25;97133.09;;;6.42;100.00
34297;BME280;20564;42.902;25.336;2023-03-03T11:45:19;97118.38;;;6.30;100.00
34297;BME280;20564;42.902;25.336;2023-03-03T11:57:38;97132.75;;;6.00;100.00
34297;BME280;20564;42.902;25.336;2023-03-03T12:01:19;97123.84;;;5.79;100.00
34297;BME280;20564;42.902;25.336;2023-03-03T12:04:31;97137.25;;;5.74;100.00
34297;BME280;20564;42.902;25.336;2023-03-03T12:10:44;97140.19;;;5.70;100.00
34297;BME280;20564;42.902;25.336;2023-03-03T12:29:52;97124.34;;;5.84;100.00
34297;BME280;20564;42.902;25.336;2023-03-03T12:35:45;97136.13;;;5.90;100.00
34297;BME280;20564;42.902;25.336;2023-03-03T12:39:11;97121.50;;;5.87;100.00
34297;BME280;20564;42.902;25.336;2023-03-03T12:44:14;97142.06;;;5.92;100.00
34297;BME280;20564;42.902;25.336;2023-03-03T12:55:31;97141.63;;;6.22;100.00
34297;BME280;20564;42.902;25.336;2023-03-03T13:05:18;97124.97;;;6.12;100.00
34297;BME280;20564;42.902;25.336;2023-03-03T13:11:27;97139.97;;;6.32;100.00
34297;BME280;20564;42.902;25.336;2023-03-03T13:17:30;97129.78;;;6.29;100.00
34297;BME280;20564;42.902;25.336;2023-03-03T13:26:18;97139.09;;;6.56;100.00
34297;BME280;20564;42.902;25.336;2023-03-03T13:35:14;97137.16;;;6.58;100.00
34297;BME280;20564;42.902;25.336;2023-03-03T13:37:52;97128.41;;;6.59;100.00
34297;BME280;20564;42.902;25.336;2023-03-03T13:40:25;97123.41;;;6.56;100.00
34297;BME280;20564;42.902;25.336;2023-03-03T13:43:07;97130.53;;;6.65;100.00
34297;BME280;20564;42.902;25.336;2023-03-03T14:01:05;97122.91;;;6.62;100.00
34297;BME280;20564;42.902;25.336;2023-03-03T14:03:56;97124.22;;;6.56;100.00
34297;BME280;20564;42.902;25.336;2023-03-03T14:06:27;97122.91;;;6.50;100.00
34297;BME280;20564;42.902;25.336;2023-03-03T14:12:05;97130.28;;;6.57;100.00
34297;BME280;20564;42.902;25.336;2023-03-03T14:15:54;97124.34;;;6.55;100.00
34297;BME280;20564;42.902;25.336;2023-03-03T14:21:13;97123.41;;;6.56;100.00
34297;BME280;20564;42.902;25.336;2023-03-03T14:24:33;97123.84;;;6.49;100.00
34297;BME280;20564;42.902;25.336;2023-03-03T14:26:56;97117.94;;;6.59;100.00
34297;BME280;20564;42.902;25.336;2023-03-03T14:29:46;97116.63;;;6.64;100.00
34297;BME280;20564;42.902;25.336;2023-03-03T14:32:27;97092.25;;;6.52;100.00
34297;BME280;20564;42.902;25.336;2023-03-03T14:35:18;97109.59;;;6.53;100.00
34297;BME280;20564;42.902;25.336;2023-03-03T14:38:15;97100.22;;;6.51;100.00
34297;BME280;20564;42.902;25.336;2023-03-03T14:40:46;97109.13;;;6.60;100.00
34297;BME280;20564;42.902;25.336;2023-03-03T14:43:44;97116.16;;;6.59;100.00
34297;BME280;20564;42.902;25.336;2023-03-03T14:46:59;97121.00;;;6.52;100.00
34297;BME280;20564;42.902;25.336;2023-03-03T14:49:33;97118.25;;;6.43;100.00
34297;BME280;20564;42.902;25.336;2023-03-03T14:52:18;97126.44;;;6.38;100.00
34297;BME280;20564;42.902;25.336;2023-03-03T14:54:58;97124.06;;;6.35;100.00
34297;BME280;20564;42.902;25.336;2023-03-03T14:57:39;97119.34;;;6.40;100.00
34297;BME280;20564;42.902;25.336;2023-03-03T15:05:57;97124.78;;;6.26;100.00
34297;BME280;20564;42.902;25.336;2023-03-03T15:08:34;97132.72;;;6.24;100.00
34297;BME280;20564;42.902;25.336;2023-03-03T15:11:38;97124.25;;;6.21;100.00
34297;BME280;20564;42.902;25.336;2023-03-03T15:18:34;97120.34;;;6.15;100.00
34297;BME280;20564;42.902;25.336;2023-03-03T15:22:07;97121.63;;;6.10;100.00
34297;BME280;20564;42.902;25.336;2023-03-03T15:25:03;97126.63;;;6.13;100.00
34297;BME280;20564;42.902;25.336;2023-03-03T15:28:17;97124.97;;;6.12;100.00
34297;BME280;20564;42.902;25.336;2023-03-03T15:41:07;97120.56;;;6.12;100.00
34297;BME280;20564;42.902;25.336;2023-03-03T15:44:21;97129.22;;;6.13;100.00
34297;BME280;20564;42.902;25.336;2023-03-03T15:47:12;97128.03;;;6.06;100.00
34297;BME280;20564;42.902;25.336;2023-03-03T15:56:06;97126.72;;;6.00;100.00
34297;BME280;20564;42.902;25.336;2023-03-03T16:02:18;97137.47;;;5.95;100.00
34297;BME280;20564;42.902;25.336;2023-03-03T16:27:20;97154.38;;;5.78;100.00
34297;BME280;20564;42.902;25.336;2023-03-03T16:32:50;97161.47;;;5.76;100.00
34297;BME280;20564;42.902;25.336;2023-03-03T16:35:32;97162.50;;;5.74;100.00
34297;BME280;20564;42.902;25.336;2023-03-03T16:38:08;97166.19;;;5.71;100.00
34297;BME280;20564;42.902;25.336;2023-03-03T16:40:53;97177.00;;;5.67;100.00
34297;BME280;20564;42.902;25.336;2023-03-03T16:46:48;97180.53;;;5.66;100.00
34297;BME280;20564;42.902;25.336;2023-03-03T16:49:44;97183.88;;;5.68;100.00
34297;BME280;20564;42.902;25.336;2023-03-03T16:52:24;97191.69;;;5.68;100.00
34297;BME280;20564;42.902;25.336;2023-03-03T16:55:04;97200.38;;;5.68;100.00
34297;BME280;20564;42.902;25.336;2023-03-03T17:22:28;97202.16;;;5.68;100.00
34297;BME280;20564;42.902;25.336;2023-03-03T17:29:33;97206.53;;;5.67;100.00
34297;BME280;20564;42.902;25.336;2023-03-03T17:38:30;97215.13;;;5.56;100.00
34297;BME280;20564;42.902;25.336;2023-03-03T17:45:15;97220.56;;;5.53;100.00
34297;BME280;20564;42.902;25.336;2023-03-03T17:56:47;97221.28;;;5.55;100.00
34297;BME280;20564;42.902;25.336;2023-03-03T18:05:45;97233.41;;;5.56;100.00
34297;BME280;20564;42.902;25.336;2023-03-03T18:08:48;97234.31;;;5.55;100.00
34297;BME280;20564;42.902;25.336;2023-03-03T18:33:12;97256.28;;;5.53;100.00
34297;BME280;20564;42.902;25.336;2023-03-03T18:36:12;97255.34;;;5.54;100.00
34297;BME280;20564;42.902;25.336;2023-03-03T18:38:56;97262.53;;;5.50;100.00
34297;BME280;20564;42.902;25.336;2023-03-03T18:44:44;97270.88;;;5.55;100.00
34297;BME280;20564;42.902;25.336;2023-03-03T18:47:13;97261.94;;;5.47;100.00
34297;BME280;20564;42.902;25.336;2023-03-03T18:50:05;97259.19;;;5.48;100.00
34297;BME280;20564;42.902;25.336;2023-03-03T18:55:55;97254.72;;;5.50;100.00
34297;BME280;20564;42.902;25.336;2023-03-03T18:58:41;97255.53;;;5.51;100.00
34297;BME280;20564;42.902;25.336;2023-03-03T19:04:34;97262.34;;;5.53;100.00
34297;BME280;20564;42.902;25.336;2023-03-03T19:10:03;97261.94;;;5.47;100.00
34297;BME280;20564;42.902;25.336;2023-03-03T19:12:51;97260.97;;;5.48;100.00
34297;BME280;20564;42.902;25.336;2023-03-03T19:15:45;97269.63;;;5.48;100.00
34297;BME280;20564;42.902;25.336;2023-03-03T19:25:33;97258.38;;;5.48;100.00
34297;BME280;20564;42.902;25.336;2023-03-03T19:48:37;97273.31;;;5.33;100.00
34297;BME280;20564;42.902;25.336;2023-03-03T19:57:16;97259.22;;;5.36;100.00
34297;BME280;20564;42.902;25.336;2023-03-03T20:03:58;97271.03;;;5.41;100.00
34297;BME280;20564;42.902;25.336;2023-03-03T20:06:57;97269.78;;;5.34;100.00
34297;BME280;20564;42.902;25.336;2023-03-03T20:22:17;97281.88;;;5.35;100.00
34297;BME280;20564;42.902;25.336;2023-03-03T20:24:59;97283.75;;;5.33;100.00
34297;BME280;20564;42.902;25.336;2023-03-03T20:34:28;97288.13;;;5.32;100.00
34297;BME280;20564;42.902;25.336;2023-03-03T20:47:08;97291.91;;;5.41;100.00
34297;BME280;20564;42.902;25.336;2023-03-03T21:04:31;97274.56;;;5.40;100.00
34297;BME280;20564;42.902;25.336;2023-03-03T21:08:04;97275.00;;;5.34;100.00
34297;BME280;20564;42.902;25.336;2023-03-03T21:10:39;97271.75;;;5.43;100.00
34297;BME280;20564;42.902;25.336;2023-03-03T21:13:42;97276.66;;;5.35;100.00
34297;BME280;20564;42.902;25.336;2023-03-03T21:19:21;97283.53;;;5.36;100.00